HS Bizet — A8MI3 — position and weather

sailwx.info

Track history (hours):
 
Tides and Currents Weather Stations Pressure Air Temp Water Temp Dewpoint Dewpoint Depression Visibility Wind Speed Wind Dir Waves Ship Positions

HS Bizet

Last reported at 2016-Aug-26 09:31 UTC. Time now 2016-Aug-26 10:14 UTC.
Position N 37°48' W 122°19'.

Length 246 m; draft 9 m.

Type: Ship (hazmat cat A). MMSI: 636091349.

Date/timePositionNaut miles runAvg speedWind from/ knotsBaromVisibWave heightAir tempDewpointWater temp
2016-Aug-26 09:31N 37°48' W 122°19'0 0.0
2016-Aug-26 08:31N 37°48' W 122°19'0 0.0
2016-Aug-26 07:31N 37°48' W 122°19'0 0.0
2016-Aug-26 06:31N 37°48' W 122°19'0 0.0
2016-Aug-26 04:31N 37°48' W 122°19'0 0.0
2016-Aug-26 03:31N 37°48' W 122°19'0 0.0
2016-Aug-26 02:31N 37°48' W 122°19'0 0.0
2016-Aug-26 01:31N 37°48' W 122°19'0 0.0
2016-Aug-26 00:31N 37°48' W 122°19'0 0.0
2016-Aug-25 23:31N 37°48' W 122°19'0 0.0
2016-Aug-25 22:31N 37°48' W 122°19'0 0.0
2016-Aug-25 21:31N 37°48' W 122°19'0 0.0
2016-Aug-25 20:28N 37°48' W 122°19'0 0.0
2016-Aug-25 19:31N 37°48' W 122°19'0 0.0
2016-Aug-25 18:31N 37°48' W 122°19'0 0.0
2016-Aug-25 17:31N 37°48' W 122°19'0 0.0
2016-Aug-25 16:31N 37°48' W 122°19'0 0.0
2016-Aug-25 15:31N 37°48' W 122°19'0 0.0
2016-Aug-25 14:31N 37°48' W 122°19'0 0.0
2016-Aug-25 13:31N 37°48' W 122°19'0 0.0
2016-Aug-25 12:31N 37°48' W 122°19'0 0.0
2016-Aug-25 11:31N 37°48' W 122°19'0 0.0
2016-Aug-25 10:31N 37°48' W 122°19'0 0.0
2016-Aug-25 09:31N 37°48' W 122°19'0 0.0
2016-Aug-25 08:31N 37°48' W 122°19'0 0.0
2016-Aug-25 07:31N 37°48' W 122°19'0 0.0
2016-Aug-25 06:31N 37°48' W 122°19'0 0.0
2016-Aug-25 04:31N 37°48' W 122°19'1 1.1
2016-Aug-25 03:33N 37°48' W 122°18'5 4.7
2016-Aug-25 02:33N 37°48' W 122°24'1111.1
2016-Aug-25 01:34N 37°46' W 122°37'8 8.0
2016-Aug-25 00:33N 37°41' W 122°46'9 8.7
2016-Aug-24 23:33N 37°36' W 122°54'9 8.8
2016-Aug-24 22:33N 37°31' W 123°04'9 8.7
2016-Aug-24 21:33N 37°25' W 123°11'9 9.1
2016-Aug-24 20:33N 37°18' W 123°19'8 7.9
2016-Aug-24 19:31N 37°12' W 123°25'10 9.9
2016-Aug-24 18:33N 37°05' W 123°33'10 9.9
2016-Aug-24 17:33N 36°57' W 123°41'10 9.7
2016-Aug-24 16:33N 36°50' W 123°49'10 9.9
2016-Aug-24 15:33N 36°42' W 123°57'10 9.6
2016-Aug-24 14:33N 36°35' W 124°05'11 9.7
2016-Aug-24 13:28N 36°27' W 124°14'20 9.6
2016-Aug-24 11:23N 36°12' W 124°30'9 9.7
2016-Aug-24 10:27N 36°06' W 124°38'9 9.8
2016-Aug-24 09:33N 35°59' W 124°45'10 9.7
2016-Aug-24 08:33N 35°52' W 124°53'10 9.9
2016-Aug-24 07:33N 35°44' W 125°01'10 9.7
2016-Aug-24 06:33N 35°37' W 125°09'2411.1
2016-Aug-24 04:26N 35°19' W 125°27'1413.2
2016-Aug-24 03:24N 35°09' W 125°39'  
Track history (hours):
 
Tides and Currents Weather Stations Pressure Air Temp Water Temp Dewpoint Dewpoint Depression Visibility Wind Speed Wind Dir Waves Ship Positions

HS Bizet

Last reported at 2016-Aug-26 09:31 UTC. Time now 2016-Aug-26 10:14 UTC.
Position N 37°48' W 122°19'.

Length 246 m; draft 9 m.

Type: Ship (hazmat cat A). MMSI: 636091349.

Date/timePositionNaut miles runAvg speedWind from/ knotsBaromVisibWave heightAir tempDewpointWater temp
2016-Aug-26 09:31N 37°48' W 122°19'0 0.0
2016-Aug-26 08:31N 37°48' W 122°19'0 0.0
2016-Aug-26 07:31N 37°48' W 122°19'0 0.0
2016-Aug-26 06:31N 37°48' W 122°19'0 0.0
2016-Aug-26 04:31N 37°48' W 122°19'0 0.0
2016-Aug-26 03:31N 37°48' W 122°19'0 0.0
2016-Aug-26 02:31N 37°48' W 122°19'0 0.0
2016-Aug-26 01:31N 37°48' W 122°19'0 0.0
2016-Aug-26 00:31N 37°48' W 122°19'0 0.0
2016-Aug-25 23:31N 37°48' W 122°19'0 0.0
2016-Aug-25 22:31N 37°48' W 122°19'0 0.0
2016-Aug-25 21:31N 37°48' W 122°19'0 0.0
2016-Aug-25 20:28N 37°48' W 122°19'0 0.0
2016-Aug-25 19:31N 37°48' W 122°19'0 0.0
2016-Aug-25 18:31N 37°48' W 122°19'0 0.0
2016-Aug-25 17:31N 37°48' W 122°19'0 0.0
2016-Aug-25 16:31N 37°48' W 122°19'0 0.0
2016-Aug-25 15:31N 37°48' W 122°19'0 0.0
2016-Aug-25 14:31N 37°48' W 122°19'0 0.0
2016-Aug-25 13:31N 37°48' W 122°19'0 0.0
2016-Aug-25 12:31N 37°48' W 122°19'0 0.0
2016-Aug-25 11:31N 37°48' W 122°19'0 0.0
2016-Aug-25 10:31N 37°48' W 122°19'0 0.0
2016-Aug-25 09:31N 37°48' W 122°19'0 0.0
2016-Aug-25 08:31N 37°48' W 122°19'0 0.0
2016-Aug-25 07:31N 37°48' W 122°19'0 0.0
2016-Aug-25 06:31N 37°48' W 122°19'0 0.0
2016-Aug-25 04:31N 37°48' W 122°19'1 1.1
2016-Aug-25 03:33N 37°48' W 122°18'5 4.7
2016-Aug-25 02:33N 37°48' W 122°24'1111.1
2016-Aug-25 01:34N 37°46' W 122°37'8 8.0
2016-Aug-25 00:33N 37°41' W 122°46'9 8.7
2016-Aug-24 23:33N 37°36' W 122°54'9 8.8
2016-Aug-24 22:33N 37°31' W 123°04'9 8.7
2016-Aug-24 21:33N 37°25' W 123°11'9 9.1
2016-Aug-24 20:33N 37°18' W 123°19'8 7.9
2016-Aug-24 19:31N 37°12' W 123°25'10 9.9
2016-Aug-24 18:33N 37°05' W 123°33'10 9.9
2016-Aug-24 17:33N 36°57' W 123°41'10 9.7
2016-Aug-24 16:33N 36°50' W 123°49'10 9.9
2016-Aug-24 15:33N 36°42' W 123°57'10 9.6
2016-Aug-24 14:33N 36°35' W 124°05'11 9.7
2016-Aug-24 13:28N 36°27' W 124°14'20 9.6
2016-Aug-24 11:23N 36°12' W 124°30'9 9.7
2016-Aug-24 10:27N 36°06' W 124°38'9 9.8
2016-Aug-24 09:33N 35°59' W 124°45'10 9.7
2016-Aug-24 08:33N 35°52' W 124°53'10 9.9
2016-Aug-24 07:33N 35°44' W 125°01'10 9.7
2016-Aug-24 06:33N 35°37' W 125°09'2411.1
2016-Aug-24 04:26N 35°19' W 125°27'1413.2
2016-Aug-24 03:24N 35°09' W 125°39'  

Dump ship's entire track history